Terminal Aerodrome Forecast
Issued by NWS

Home | Current Version | Previous Version | Text Only | Print | Product List | Glossary On
Versions: 1 2 3 4 5 6 7 8 9 10 11 12 13 14 15 16 17
752
FTUS44 KLZK 100520
TAFHRO
TAF
KHRO 100520Z 1006/1106 33008KT P6SM SKC
     FM101000 VRB05KT P6SM BKN060
     FM101700 22008KT P6SM SCT060=

USA.gov is the U.S. government's official web portal to all federal, state and local government web resources and services.